TimeEST,TemperatureF,Dew PointF,Humidity,Sea Level PressureIn,VisibilityMPH,Wind Direction,Wind SpeedMPH,Gust SpeedMPH,PrecipitationIn,Events,Conditions,WindDirDegrees,DateUTC
12:53 AM,37.9,16.0,41,29.96,10.0,SW,5.8,-,N/A,,Clear,220,2014-01-26 05:53:00
1:53 AM,35.1,18.0,50,29.96,10.0,SW,5.8,-,N/A,,Clear,230,2014-01-26 06:53:00
2:53 AM,39.0,18.0,43,29.96,10.0,WSW,8.1,-,N/A,,Clear,250,2014-01-26 07:53:00
3:53 AM,36.0,19.0,50,29.97,10.0,SW,9.2,-,N/A,,Clear,230,2014-01-26 08:53:00
4:53 AM,36.0,19.0,50,29.97,10.0,WSW,5.8,-,N/A,,Clear,250,2014-01-26 09:53:00
5:53 AM,33.1,19.9,59,29.98,10.0,WSW,3.5,-,N/A,,Clear,240,2014-01-26 10:53:00
6:53 AM,33.1,19.0,56,30.00,10.0,West,5.8,-,N/A,,Clear,270,2014-01-26 11:53:00
7:53 AM,30.0,21.0,69,30.02,10.0,SW,4.6,-,N/A,,Clear,230,2014-01-26 12:53:00
8:53 AM,37.0,21.9,54,30.02,10.0,SW,5.8,-,N/A,,Clear,230,2014-01-26 13:53:00
9:53 AM,44.1,21.9,42,30.03,10.0,West,10.4,-,N/A,,Clear,260,2014-01-26 14:53:00
10:53 AM,48.0,23.0,37,30.03,10.0,WSW,6.9,-,N/A,,Clear,250,2014-01-26 15:53:00
11:53 AM,52.0,24.1,34,30.02,10.0,West,13.8,19.6,N/A,,Clear,260,2014-01-26 16:53:00
12:53 PM,55.0,23.0,29,29.98,10.0,WSW,11.5,-,N/A,,Clear,250,2014-01-26 17:53:00
1:53 PM,55.0,24.1,30,29.96,10.0,WSW,13.8,-,N/A,,Clear,240,2014-01-26 18:53:00
2:53 PM,55.0,25.0,31,29.94,10.0,SW,10.4,-,N/A,,Clear,220,2014-01-26 19:53:00
3:53 PM,55.0,26.1,33,29.93,10.0,WSW,12.7,-,N/A,,Clear,240,2014-01-26 20:53:00
4:53 PM,54.0,26.1,34,29.94,10.0,SW,13.8,-,N/A,,Clear,230,2014-01-26 21:53:00
5:53 PM,51.1,27.0,39,29.94,10.0,SW,4.6,-,N/A,,Clear,220,2014-01-26 22:53:00
6:53 PM,48.9,28.0,44,29.95,10.0,SSW,4.6,-,N/A,,Clear,210,2014-01-26 23:53:00
7:53 PM,48.0,28.9,48,29.96,10.0,SSW,3.5,-,N/A,,Clear,200,2014-01-27 00:53:00
8:53 PM,43.0,30.0,60,29.96,10.0,SSW,5.8,-,N/A,,Clear,210,2014-01-27 01:53:00
9:53 PM,42.1,30.0,62,29.97,10.0,SW,5.8,-,N/A,,Clear,230,2014-01-27 02:53:00
10:53 PM,45.0,28.9,53,29.98,10.0,SSW,4.6,-,N/A,,Clear,200,2014-01-27 03:53:00
11:53 PM,46.0,30.0,54,29.97,10.0,SSW,6.9,-,N/A,,Clear,200,2014-01-27 04:53:00